In Rescue
 
Open Full Screen Window  High Contrast Mode
Wind Gusting 00 knots
06
May 25, 2022 8:22 PM CDT
Weather Information
Wind Direction
  010 °
Wind Speed
  06 kt (7 mph)
Wind Gust
  00 kt (0 mph)
Altimeter
29.95 in
Visibility
10 SM
Temperature
08° C
46° F
Dewpoint
07° C
45° F
Humidity
93%
1hr Rain Fall
00.00 in.
24hr Rain Fall
00.03 in.
Sky Condition
Overcast @ 1,500 ft
Broken @ 1,000 ft
MVFR

METAR KHZX 260122Z AUTO 01006KT 10SM BKN010 OVC015 08/07 A2995 RMK AO2

FAA Disclaimer: The data displayed is for advisory purposes only and is not to be used for flight planning or operations.